Terminal Aerodrome Forecast
Issued by NWS Bismarck, ND

Home | Current Version | Previous Version | Graphics & Text | Print | Product List | Glossary On
Versions: 1 2 3 4 5 6 7 8 9 10 11 12 13 14 15
000
FTUS43 KBIS 251700
TAFISN
TAF
KISN 251738Z 2518/2618 32014KT P6SM SCT018 BKN025 OVC035
      TEMPO 2518/2519 BKN018 OVC025
     FM252000 31012KT P6SM SCT035 BKN050
     FM260100 24004KT P6SM SCT100
     FM261600 17005KT P6SM FEW030 SCT100=

USA.gov is the U.S. government's official web portal to all federal, state and local government web resources and services.